sensor_id;sensor_type;location;lat;lon;timestamp;temperature;humidity
38090;DHT22;23904;52.322;10.232;2023-08-24T00:01:06;19.30;99.90
38090;DHT22;23904;52.322;10.232;2023-08-24T00:03:34;19.30;99.90
38090;DHT22;23904;52.322;10.232;2023-08-24T00:05:59;19.30;99.90
38090;DHT22;23904;52.322;10.232;2023-08-24T00:08:25;19.20;99.90
38090;DHT22;23904;52.322;10.232;2023-08-24T00:10:51;19.20;99.90
38090;DHT22;23904;52.322;10.232;2023-08-24T00:13:16;19.10;99.90
38090;DHT22;23904;52.322;10.232;2023-08-24T00:15:42;19.10;99.90
38090;DHT22;23904;52.322;10.232;2023-08-24T00:18:08;19.10;99.90
38090;DHT22;23904;52.322;10.232;2023-08-24T00:20:34;19.10;99.90
38090;DHT22;23904;52.322;10.232;2023-08-24T00:23:00;19.00;99.90
38090;DHT22;23904;52.322;10.232;2023-08-24T00:25:26;19.00;99.90
38090;DHT22;23904;52.322;10.232;2023-08-24T00:27:54;19.00;99.90
38090;DHT22;23904;52.322;10.232;2023-08-24T00:30:20;19.00;99.90
38090;DHT22;23904;52.322;10.232;2023-08-24T00:32:46;19.00;99.90
38090;DHT22;23904;52.322;10.232;2023-08-24T00:35:11;18.90;99.90
38090;DHT22;23904;52.322;10.232;2023-08-24T00:37:37;18.90;99.90
38090;DHT22;23904;52.322;10.232;2023-08-24T00:40:05;18.80;99.90
38090;DHT22;23904;52.322;10.232;2023-08-24T00:42:41;18.90;99.90
38090;DHT22;23904;52.322;10.232;2023-08-24T00:45:10;18.80;99.90
38090;DHT22;23904;52.322;10.232;2023-08-24T00:47:41;18.70;99.90
38090;DHT22;23904;52.322;10.232;2023-08-24T00:50:08;18.70;99.90
38090;DHT22;23904;52.322;10.232;2023-08-24T00:52:37;18.80;99.90
38090;DHT22;23904;52.322;10.232;2023-08-24T00:55:05;18.80;99.90
38090;DHT22;23904;52.322;10.232;2023-08-24T00:57:32;18.70;99.90
38090;DHT22;23904;52.322;10.232;2023-08-24T00:59:59;18.70;99.90
38090;DHT22;23904;52.322;10.232;2023-08-24T01:02:28;18.70;99.90
38090;DHT22;23904;52.322;10.232;2023-08-24T01:04:54;18.70;99.90
38090;DHT22;23904;52.322;10.232;2023-08-24T01:07:20;18.60;99.90
38090;DHT22;23904;52.322;10.232;2023-08-24T01:09:46;18.50;99.90
38090;DHT22;23904;52.322;10.232;2023-08-24T01:12:25;18.40;99.90
38090;DHT22;23904;52.322;10.232;2023-08-24T01:15:13;18.40;99.90
38090;DHT22;23904;52.322;10.232;2023-08-24T01:17:43;18.40;99.90
38090;DHT22;23904;52.322;10.232;2023-08-24T01:20:10;18.50;99.90
38090;DHT22;23904;52.322;10.232;2023-08-24T01:22:44;18.40;99.90
38090;DHT22;23904;52.322;10.232;2023-08-24T01:25:22;18.40;99.90
38090;DHT22;23904;52.322;10.232;2023-08-24T01:27:56;18.30;99.90
38090;DHT22;23904;52.322;10.232;2023-08-24T01:30:22;18.30;99.90
38090;DHT22;23904;52.322;10.232;2023-08-24T01:32:48;18.30;99.90
38090;DHT22;23904;52.322;10.232;2023-08-24T01:35:14;18.20;99.90
38090;DHT22;23904;52.322;10.232;2023-08-24T01:37:40;18.20;99.90
38090;DHT22;23904;52.322;10.232;2023-08-24T01:40:07;18.20;99.90
38090;DHT22;23904;52.322;10.232;2023-08-24T01:42:53;18.20;99.90
38090;DHT22;23904;52.322;10.232;2023-08-24T01:45:25;18.20;99.90
38090;DHT22;23904;52.322;10.232;2023-08-24T01:47:55;18.20;99.90
38090;DHT22;23904;52.322;10.232;2023-08-24T01:50:21;18.20;99.90
38090;DHT22;23904;52.322;10.232;2023-08-24T01:52:48;18.30;99.90
38090;DHT22;23904;52.322;10.232;2023-08-24T01:55:18;18.30;99.90
38090;DHT22;23904;52.322;10.232;2023-08-24T01:57:44;18.30;99.90
38090;DHT22;23904;52.322;10.232;2023-08-24T02:00:10;18.30;99.90
38090;DHT22;23904;52.322;10.232;2023-08-24T02:02:36;18.40;99.90
38090;DHT22;23904;52.322;10.232;2023-08-24T02:05:02;18.30;99.90
38090;DHT22;23904;52.322;10.232;2023-08-24T02:07:29;18.30;99.90
38090;DHT22;23904;52.322;10.232;2023-08-24T02:09:54;18.20;99.90
38090;DHT22;23904;52.322;10.232;2023-08-24T02:12:20;18.20;99.90
38090;DHT22;23904;52.322;10.232;2023-08-24T02:14:46;18.10;99.90
38090;DHT22;23904;52.322;10.232;2023-08-24T02:17:11;18.10;99.90
38090;DHT22;23904;52.322;10.232;2023-08-24T02:19:37;18.10;99.90
38090;DHT22;23904;52.322;10.232;2023-08-24T02:22:03;18.10;99.90
38090;DHT22;23904;52.322;10.232;2023-08-24T02:24:28;18.10;99.90
38090;DHT22;23904;52.322;10.232;2023-08-24T02:26:54;18.10;99.90
38090;DHT22;23904;52.322;10.232;2023-08-24T02:29:19;18.10;99.90
38090;DHT22;23904;52.322;10.232;2023-08-24T02:31:45;18.10;99.90
38090;DHT22;23904;52.322;10.232;2023-08-24T02:34:10;18.10;99.90
38090;DHT22;23904;52.322;10.232;2023-08-24T02:36:36;18.10;99.90
38090;DHT22;23904;52.322;10.232;2023-08-24T02:39:02;18.00;99.90
38090;DHT22;23904;52.322;10.232;2023-08-24T02:41:28;18.00;99.90
38090;DHT22;23904;52.322;10.232;2023-08-24T02:43:53;18.10;99.90
38090;DHT22;23904;52.322;10.232;2023-08-24T02:46:20;18.00;99.90
38090;DHT22;23904;52.322;10.232;2023-08-24T02:48:46;18.00;99.90
38090;DHT22;23904;52.322;10.232;2023-08-24T02:51:13;17.90;99.90
38090;DHT22;23904;52.322;10.232;2023-08-24T02:53:39;17.70;99.90
38090;DHT22;23904;52.322;10.232;2023-08-24T02:56:04;17.70;99.90
38090;DHT22;23904;52.322;10.232;2023-08-24T02:58:30;17.70;99.90
38090;DHT22;23904;52.322;10.232;2023-08-24T03:00:57;17.70;99.90
38090;DHT22;23904;52.322;10.232;2023-08-24T03:03:23;17.60;99.90
38090;DHT22;23904;52.322;10.232;2023-08-24T03:06:00;17.50;99.90
38090;DHT22;23904;52.322;10.232;2023-08-24T03:08:28;17.50;99.90
38090;DHT22;23904;52.322;10.232;2023-08-24T03:10:54;17.50;99.90
38090;DHT22;23904;52.322;10.232;2023-08-24T03:13:20;17.50;99.90
38090;DHT22;23904;52.322;10.232;2023-08-24T03:15:45;17.50;99.90
38090;DHT22;23904;52.322;10.232;2023-08-24T03:18:12;17.40;99.90
38090;DHT22;23904;52.322;10.232;2023-08-24T03:20:39;17.40;99.90
38090;DHT22;23904;52.322;10.232;2023-08-24T03:23:05;17.40;99.90
38090;DHT22;23904;52.322;10.232;2023-08-24T03:25:35;17.40;99.90
38090;DHT22;23904;52.322;10.232;2023-08-24T03:28:03;17.40;99.90
38090;DHT22;23904;52.322;10.232;2023-08-24T03:30:29;17.40;99.90
38090;DHT22;23904;52.322;10.232;2023-08-24T03:32:55;17.30;99.90
38090;DHT22;23904;52.322;10.232;2023-08-24T03:35:21;17.40;99.90
38090;DHT22;23904;52.322;10.232;2023-08-24T03:37:46;17.40;99.90
38090;DHT22;23904;52.322;10.232;2023-08-24T03:40:13;17.40;99.90
38090;DHT22;23904;52.322;10.232;2023-08-24T03:42:38;17.30;99.90
38090;DHT22;23904;52.322;10.232;2023-08-24T03:45:05;17.30;99.90
38090;DHT22;23904;52.322;10.232;2023-08-24T03:47:31;17.40;99.90
38090;DHT22;23904;52.322;10.232;2023-08-24T03:49:56;17.40;99.90
38090;DHT22;23904;52.322;10.232;2023-08-24T03:52:22;17.40;99.90
38090;DHT22;23904;52.322;10.232;2023-08-24T03:54:47;17.40;99.90
38090;DHT22;23904;52.322;10.232;2023-08-24T03:57:14;17.40;99.90
38090;DHT22;23904;52.322;10.232;2023-08-24T03:59:41;17.40;99.90
38090;DHT22;23904;52.322;10.232;2023-08-24T04:02:06;17.30;99.90
38090;DHT22;23904;52.322;10.232;2023-08-24T04:04:32;17.40;99.90
38090;DHT22;23904;52.322;10.232;2023-08-24T04:06:57;17.30;99.90
38090;DHT22;23904;52.322;10.232;2023-08-24T04:09:23;17.30;99.90
38090;DHT22;23904;52.322;10.232;2023-08-24T04:11:49;17.40;99.90
38090;DHT22;23904;52.322;10.232;2023-08-24T04:14:15;17.40;99.90
38090;DHT22;23904;52.322;10.232;2023-08-24T04:16:40;17.40;99.90
38090;DHT22;23904;52.322;10.232;2023-08-24T04:19:07;17.40;99.90
38090;DHT22;23904;52.322;10.232;2023-08-24T04:21:33;17.30;99.90
38090;DHT22;23904;52.322;10.232;2023-08-24T04:23:59;17.30;99.90
38090;DHT22;23904;52.322;10.232;2023-08-24T04:26:25;17.20;99.90
38090;DHT22;23904;52.322;10.232;2023-08-24T04:28:51;17.20;99.90
38090;DHT22;23904;52.322;10.232;2023-08-24T04:31:16;17.20;99.90
38090;DHT22;23904;52.322;10.232;2023-08-24T04:33:42;17.20;99.90
38090;DHT22;23904;52.322;10.232;2023-08-24T04:36:07;17.20;99.90
38090;DHT22;23904;52.322;10.232;2023-08-24T04:38:34;17.20;99.90
38090;DHT22;23904;52.322;10.232;2023-08-24T04:41:00;17.20;99.90
38090;DHT22;23904;52.322;10.232;2023-08-24T04:43:26;17.20;99.90
38090;DHT22;23904;52.322;10.232;2023-08-24T04:45:53;17.20;99.90
38090;DHT22;23904;52.322;10.232;2023-08-24T04:48:21;17.30;99.90
38090;DHT22;23904;52.322;10.232;2023-08-24T04:50:47;17.30;99.90
38090;DHT22;23904;52.322;10.232;2023-08-24T04:53:16;17.30;99.90
38090;DHT22;23904;52.322;10.232;2023-08-24T04:55:43;17.30;99.90
38090;DHT22;23904;52.322;10.232;2023-08-24T04:58:09;17.30;99.90
38090;DHT22;23904;52.322;10.232;2023-08-24T05:00:36;17.30;99.90
38090;DHT22;23904;52.322;10.232;2023-08-24T05:03:03;17.30;99.90
38090;DHT22;23904;52.322;10.232;2023-08-24T05:05:29;17.30;99.90
38090;DHT22;23904;52.322;10.232;2023-08-24T05:07:57;17.40;99.90
38090;DHT22;23904;52.322;10.232;2023-08-24T05:10:23;17.50;99.90
38090;DHT22;23904;52.322;10.232;2023-08-24T05:12:49;17.50;99.90
38090;DHT22;23904;52.322;10.232;2023-08-24T05:15:15;17.40;99.90
38090;DHT22;23904;52.322;10.232;2023-08-24T05:17:40;17.40;99.90
38090;DHT22;23904;52.322;10.232;2023-08-24T05:20:07;17.50;99.90
38090;DHT22;23904;52.322;10.232;2023-08-24T05:22:34;17.60;99.90
38090;DHT22;23904;52.322;10.232;2023-08-24T05:25:00;17.70;99.90
38090;DHT22;23904;52.322;10.232;2023-08-24T05:27:25;17.80;99.90
38090;DHT22;23904;52.322;10.232;2023-08-24T05:29:51;17.90;99.90
38090;DHT22;23904;52.322;10.232;2023-08-24T05:32:16;18.00;99.90
38090;DHT22;23904;52.322;10.232;2023-08-24T05:34:42;18.10;99.90
38090;DHT22;23904;52.322;10.232;2023-08-24T05:37:08;18.10;99.90
38090;DHT22;23904;52.322;10.232;2023-08-24T05:39:33;18.20;99.90
38090;DHT22;23904;52.322;10.232;2023-08-24T05:41:59;18.20;99.90
38090;DHT22;23904;52.322;10.232;2023-08-24T05:44:24;18.30;99.90
38090;DHT22;23904;52.322;10.232;2023-08-24T05:46:50;18.40;99.90
38090;DHT22;23904;52.322;10.232;2023-08-24T05:49:15;18.40;99.90
38090;DHT22;23904;52.322;10.232;2023-08-24T05:51:41;18.50;99.90
38090;DHT22;23904;52.322;10.232;2023-08-24T05:54:06;18.50;99.90
38090;DHT22;23904;52.322;10.232;2023-08-24T05:56:32;18.40;99.90
38090;DHT22;23904;52.322;10.232;2023-08-24T05:58:58;18.50;99.90
38090;DHT22;23904;52.322;10.232;2023-08-24T06:01:24;18.50;99.90
38090;DHT22;23904;52.322;10.232;2023-08-24T06:03:50;18.60;99.90
38090;DHT22;23904;52.322;10.232;2023-08-24T06:06:16;18.70;99.90
38090;DHT22;23904;52.322;10.232;2023-08-24T06:08:42;18.80;99.90
38090;DHT22;23904;52.322;10.232;2023-08-24T06:11:08;18.70;99.90
38090;DHT22;23904;52.322;10.232;2023-08-24T06:13:34;18.70;99.90
38090;DHT22;23904;52.322;10.232;2023-08-24T06:16:00;18.70;99.90
38090;DHT22;23904;52.322;10.232;2023-08-24T06:18:27;18.80;99.90
38090;DHT22;23904;52.322;10.232;2023-08-24T06:20:53;18.80;99.90
38090;DHT22;23904;52.322;10.232;2023-08-24T06:23:19;18.90;99.90
38090;DHT22;23904;52.322;10.232;2023-08-24T06:25:45;18.80;99.90
38090;DHT22;23904;52.322;10.232;2023-08-24T06:28:11;18.90;99.90
38090;DHT22;23904;52.322;10.232;2023-08-24T06:30:38;19.00;99.90
38090;DHT22;23904;52.322;10.232;2023-08-24T06:33:05;19.00;99.90
38090;DHT22;23904;52.322;10.232;2023-08-24T06:35:33;18.90;99.90
38090;DHT22;23904;52.322;10.232;2023-08-24T06:37:59;19.00;99.90
38090;DHT22;23904;52.322;10.232;2023-08-24T06:40:25;19.10;99.90
38090;DHT22;23904;52.322;10.232;2023-08-24T06:42:50;19.10;99.90
38090;DHT22;23904;52.322;10.232;2023-08-24T06:45:16;19.10;99.90
38090;DHT22;23904;52.322;10.232;2023-08-24T06:47:43;19.20;99.90
38090;DHT22;23904;52.322;10.232;2023-08-24T06:50:09;19.20;99.90
38090;DHT22;23904;52.322;10.232;2023-08-24T06:52:35;19.20;99.90
38090;DHT22;23904;52.322;10.232;2023-08-24T06:55:01;19.20;99.90
38090;DHT22;23904;52.322;10.232;2023-08-24T06:57:27;19.20;99.90
38090;DHT22;23904;52.322;10.232;2023-08-24T06:59:53;19.30;99.90
38090;DHT22;23904;52.322;10.232;2023-08-24T07:02:18;19.40;99.90
38090;DHT22;23904;52.322;10.232;2023-08-24T07:04:44;19.40;99.90
38090;DHT22;23904;52.322;10.232;2023-08-24T07:07:10;19.40;99.90
38090;DHT22;23904;52.322;10.232;2023-08-24T07:09:36;19.50;99.90
38090;DHT22;23904;52.322;10.232;2023-08-24T07:12:02;19.60;99.90
38090;DHT22;23904;52.322;10.232;2023-08-24T07:14:28;19.80;99.90
38090;DHT22;23904;52.322;10.232;2023-08-24T07:16:54;19.90;99.90
38090;DHT22;23904;52.322;10.232;2023-08-24T07:19:20;19.90;99.90
38090;DHT22;23904;52.322;10.232;2023-08-24T07:21:46;20.00;99.90
38090;DHT22;23904;52.322;10.232;2023-08-24T07:24:11;20.10;99.90
38090;DHT22;23904;52.322;10.232;2023-08-24T07:26:37;20.20;99.90
38090;DHT22;23904;52.322;10.232;2023-08-24T07:29:02;20.20;99.90
38090;DHT22;23904;52.322;10.232;2023-08-24T07:31:28;20.20;99.90
38090;DHT22;23904;52.322;10.232;2023-08-24T07:33:54;20.30;99.90
38090;DHT22;23904;52.322;10.232;2023-08-24T07:36:19;20.30;99.90
38090;DHT22;23904;52.322;10.232;2023-08-24T07:38:46;20.30;99.90
38090;DHT22;23904;52.322;10.232;2023-08-24T07:41:14;20.40;99.90
38090;DHT22;23904;52.322;10.232;2023-08-24T07:43:42;20.40;99.90
38090;DHT22;23904;52.322;10.232;2023-08-24T07:46:08;20.40;99.90
38090;DHT22;23904;52.322;10.232;2023-08-24T07:48:34;20.60;99.90
38090;DHT22;23904;52.322;10.232;2023-08-24T07:51:00;20.80;99.90
38090;DHT22;23904;52.322;10.232;2023-08-24T07:53:26;21.00;99.90
38090;DHT22;23904;52.322;10.232;2023-08-24T07:55:53;21.20;99.90
38090;DHT22;23904;52.322;10.232;2023-08-24T07:58:21;21.60;99.90
38090;DHT22;23904;52.322;10.232;2023-08-24T08:00:49;21.70;99.90
38090;DHT22;23904;52.322;10.232;2023-08-24T08:03:19;22.10;99.90
38090;DHT22;23904;52.322;10.232;2023-08-24T08:05:46;22.20;99.90
38090;DHT22;23904;52.322;10.232;2023-08-24T08:08:13;22.30;99.90
38090;DHT22;23904;52.322;10.232;2023-08-24T08:10:40;22.20;99.90
38090;DHT22;23904;52.322;10.232;2023-08-24T08:13:07;22.40;99.90
38090;DHT22;23904;52.322;10.232;2023-08-24T08:15:33;22.80;99.90
38090;DHT22;23904;52.322;10.232;2023-08-24T08:17:59;23.10;99.90
38090;DHT22;23904;52.322;10.232;2023-08-24T08:20:25;23.30;99.90
38090;DHT22;23904;52.322;10.232;2023-08-24T08:22:50;23.40;99.90
38090;DHT22;23904;52.322;10.232;2023-08-24T08:25:16;23.50;99.90
38090;DHT22;23904;52.322;10.232;2023-08-24T08:27:44;23.60;99.90
38090;DHT22;23904;52.322;10.232;2023-08-24T08:30:11;23.60;99.90
38090;DHT22;23904;52.322;10.232;2023-08-24T08:32:37;23.80;99.90
38090;DHT22;23904;52.322;10.232;2023-08-24T08:35:03;24.30;99.90
38090;DHT22;23904;52.322;10.232;2023-08-24T08:37:32;25.10;99.90
38090;DHT22;23904;52.322;10.232;2023-08-24T08:39:58;25.90;99.90
38090;DHT22;23904;52.322;10.232;2023-08-24T08:42:24;26.70;99.90
38090;DHT22;23904;52.322;10.232;2023-08-24T08:44:50;27.50;99.90
38090;DHT22;23904;52.322;10.232;2023-08-24T08:47:20;29.30;97.20
38090;DHT22;23904;52.322;10.232;2023-08-24T08:49:48;30.50;95.10
38090;DHT22;23904;52.322;10.232;2023-08-24T08:52:14;31.70;92.80
38090;DHT22;23904;52.322;10.232;2023-08-24T08:54:40;32.70;90.90
38090;DHT22;23904;52.322;10.232;2023-08-24T08:57:09;32.50;89.70
38090;DHT22;23904;52.322;10.232;2023-08-24T08:59:35;32.60;90.10
38090;DHT22;23904;52.322;10.232;2023-08-24T09:02:02;33.20;88.00
38090;DHT22;23904;52.322;10.232;2023-08-24T09:04:32;33.80;85.90
38090;DHT22;23904;52.322;10.232;2023-08-24T09:06:59;35.00;82.50
38090;DHT22;23904;52.322;10.232;2023-08-24T09:09:30;35.10;79.80
38090;DHT22;23904;52.322;10.232;2023-08-24T09:11:55;34.20;82.00
38090;DHT22;23904;52.322;10.232;2023-08-24T09:14:22;34.50;80.70
38090;DHT22;23904;52.322;10.232;2023-08-24T09:16:47;34.50;79.40
38090;DHT22;23904;52.322;10.232;2023-08-24T09:19:13;34.30;79.70
38090;DHT22;23904;52.322;10.232;2023-08-24T09:21:39;34.30;78.10
38090;DHT22;23904;52.322;10.232;2023-08-24T09:24:07;34.10;78.30
38090;DHT22;23904;52.322;10.232;2023-08-24T09:26:37;33.20;80.00
38090;DHT22;23904;52.322;10.232;2023-08-24T09:29:14;33.20;81.30
38090;DHT22;23904;52.322;10.232;2023-08-24T09:31:41;34.50;77.90
38090;DHT22;23904;52.322;10.232;2023-08-24T09:34:10;34.80;76.30
38090;DHT22;23904;52.322;10.232;2023-08-24T09:36:37;35.50;75.40
38090;DHT22;23904;52.322;10.232;2023-08-24T09:39:04;35.20;73.80
38090;DHT22;23904;52.322;10.232;2023-08-24T09:41:49;35.10;74.90
38090;DHT22;23904;52.322;10.232;2023-08-24T09:44:17;35.10;74.30
38090;DHT22;23904;52.322;10.232;2023-08-24T09:46:43;36.00;73.60
38090;DHT22;23904;52.322;10.232;2023-08-24T09:49:10;36.40;71.20
38090;DHT22;23904;52.322;10.232;2023-08-24T09:51:39;35.70;71.80
38090;DHT22;23904;52.322;10.232;2023-08-24T09:54:07;36.40;71.50
38090;DHT22;23904;52.322;10.232;2023-08-24T09:56:38;36.40;71.40
38090;DHT22;23904;52.322;10.232;2023-08-24T10:01:38;36.80;69.10
38090;DHT22;23904;52.322;10.232;2023-08-24T10:04:08;37.10;68.00
38090;DHT22;23904;52.322;10.232;2023-08-24T10:06:36;38.40;65.30
38090;DHT22;23904;52.322;10.232;2023-08-24T10:09:10;38.30;65.30
38090;DHT22;23904;52.322;10.232;2023-08-24T10:11:49;38.50;63.60
38090;DHT22;23904;52.322;10.232;2023-08-24T10:14:44;37.70;65.90
38090;DHT22;23904;52.322;10.232;2023-08-24T10:17:14;37.80;64.30
38090;DHT22;23904;52.322;10.232;2023-08-24T10:19:42;37.70;64.30
38090;DHT22;23904;52.322;10.232;2023-08-24T10:22:09;37.40;64.10
38090;DHT22;23904;52.322;10.232;2023-08-24T10:24:35;37.10;66.30
38090;DHT22;23904;52.322;10.232;2023-08-24T10:27:02;37.50;64.90
38090;DHT22;23904;52.322;10.232;2023-08-24T10:29:29;36.80;65.60
38090;DHT22;23904;52.322;10.232;2023-08-24T10:31:56;37.70;64.00
38090;DHT22;23904;52.322;10.232;2023-08-24T10:34:22;37.90;63.10
38090;DHT22;23904;52.322;10.232;2023-08-24T10:36:48;38.10;62.30
38090;DHT22;23904;52.322;10.232;2023-08-24T10:39:14;38.10;62.80
38090;DHT22;23904;52.322;10.232;2023-08-24T10:41:53;38.80;61.20
38090;DHT22;23904;52.322;10.232;2023-08-24T10:44:33;38.80;60.60
38090;DHT22;23904;52.322;10.232;2023-08-24T10:49:58;39.80;57.70
38090;DHT22;23904;52.322;10.232;2023-08-24T10:52:33;39.60;55.60
38090;DHT22;23904;52.322;10.232;2023-08-24T10:55:03;39.50;55.60
38090;DHT22;23904;52.322;10.232;2023-08-24T10:57:39;38.90;56.10
38090;DHT22;23904;52.322;10.232;2023-08-24T11:00:11;38.80;56.00
38090;DHT22;23904;52.322;10.232;2023-08-24T11:02:45;38.60;57.00
38090;DHT22;23904;52.322;10.232;2023-08-24T11:05:28;38.70;57.10
38090;DHT22;23904;52.322;10.232;2023-08-24T11:08:05;38.30;58.00
38090;DHT22;23904;52.322;10.232;2023-08-24T11:13:15;37.90;58.90
38090;DHT22;23904;52.322;10.232;2023-08-24T11:18:25;38.10;57.40
38090;DHT22;23904;52.322;10.232;2023-08-24T11:23:30;35.90;60.90
38090;DHT22;23904;52.322;10.232;2023-08-24T11:25:58;35.20;63.60
38090;DHT22;23904;52.322;10.232;2023-08-24T11:28:28;35.60;61.70
38090;DHT22;23904;52.322;10.232;2023-08-24T11:30:56;35.20;63.90
38090;DHT22;23904;52.322;10.232;2023-08-24T11:33:30;34.60;61.80
38090;DHT22;23904;52.322;10.232;2023-08-24T11:35:57;34.70;61.20
38090;DHT22;23904;52.322;10.232;2023-08-24T11:38:24;34.80;62.10
38090;DHT22;23904;52.322;10.232;2023-08-24T11:40:50;34.90;63.80
38090;DHT22;23904;52.322;10.232;2023-08-24T11:43:25;35.10;65.10
38090;DHT22;23904;52.322;10.232;2023-08-24T11:45:54;35.30;63.40
38090;DHT22;23904;52.322;10.232;2023-08-24T11:48:27;36.00;61.20
38090;DHT22;23904;52.322;10.232;2023-08-24T11:50:55;36.80;59.50
38090;DHT22;23904;52.322;10.232;2023-08-24T11:53:22;37.90;57.40
38090;DHT22;23904;52.322;10.232;2023-08-24T11:55:52;38.40;56.70
38090;DHT22;23904;52.322;10.232;2023-08-24T11:58:18;38.60;54.20
38090;DHT22;23904;52.322;10.232;2023-08-24T12:00:44;39.40;52.30
38090;DHT22;23904;52.322;10.232;2023-08-24T12:03:10;39.10;53.60
38090;DHT22;23904;52.322;10.232;2023-08-24T12:05:36;38.80;53.80
38090;DHT22;23904;52.322;10.232;2023-08-24T12:08:01;38.20;54.80
38090;DHT22;23904;52.322;10.232;2023-08-24T12:10:27;37.10;54.90
38090;DHT22;23904;52.322;10.232;2023-08-24T12:13:06;36.20;56.60
38090;DHT22;23904;52.322;10.232;2023-08-24T12:15:36;35.00;57.50
38090;DHT22;23904;52.322;10.232;2023-08-24T12:18:13;34.30;58.10
38090;DHT22;23904;52.322;10.232;2023-08-24T12:20:40;33.50;63.50
38090;DHT22;23904;52.322;10.232;2023-08-24T12:23:07;32.90;62.30
38090;DHT22;23904;52.322;10.232;2023-08-24T12:25:54;32.30;64.00
38090;DHT22;23904;52.322;10.232;2023-08-24T12:28:20;32.00;63.80
38090;DHT22;23904;52.322;10.232;2023-08-24T12:30:51;31.50;64.40
38090;DHT22;23904;52.322;10.232;2023-08-24T12:35:52;30.90;65.40
38090;DHT22;23904;52.322;10.232;2023-08-24T12:38:19;30.80;64.50
38090;DHT22;23904;52.322;10.232;2023-08-24T12:40:45;30.80;65.50
38090;DHT22;23904;52.322;10.232;2023-08-24T12:43:11;30.80;63.10
38090;DHT22;23904;52.322;10.232;2023-08-24T12:45:36;30.90;62.60
38090;DHT22;23904;52.322;10.232;2023-08-24T12:48:06;30.90;63.60
38090;DHT22;23904;52.322;10.232;2023-08-24T12:50:35;30.70;63.10
38090;DHT22;23904;52.322;10.232;2023-08-24T12:53:01;30.60;64.90
38090;DHT22;23904;52.322;10.232;2023-08-24T12:55:28;30.60;65.20
38090;DHT22;23904;52.322;10.232;2023-08-24T12:57:54;30.30;68.30
38090;DHT22;23904;52.322;10.232;2023-08-24T13:00:20;30.20;69.00
38090;DHT22;23904;52.322;10.232;2023-08-24T13:02:48;30.20;68.30
38090;DHT22;23904;52.322;10.232;2023-08-24T13:05:14;30.40;68.30
38090;DHT22;23904;52.322;10.232;2023-08-24T13:07:39;30.60;68.40
38090;DHT22;23904;52.322;10.232;2023-08-24T13:10:06;31.10;67.30
38090;DHT22;23904;52.322;10.232;2023-08-24T13:12:32;31.80;65.80
38090;DHT22;23904;52.322;10.232;2023-08-24T13:14:59;32.10;65.40
38090;DHT22;23904;52.322;10.232;2023-08-24T13:17:25;32.30;65.00
38090;DHT22;23904;52.322;10.232;2023-08-24T13:19:50;32.30;65.60
38090;DHT22;23904;52.322;10.232;2023-08-24T13:22:16;32.20;65.40
38090;DHT22;23904;52.322;10.232;2023-08-24T13:24:42;32.00;65.50
38090;DHT22;23904;52.322;10.232;2023-08-24T13:27:09;31.80;65.90
38090;DHT22;23904;52.322;10.232;2023-08-24T13:29:36;31.50;65.30
38090;DHT22;23904;52.322;10.232;2023-08-24T13:32:02;31.20;66.40
38090;DHT22;23904;52.322;10.232;2023-08-24T13:34:29;31.00;66.50
38090;DHT22;23904;52.322;10.232;2023-08-24T13:36:56;30.90;66.20
38090;DHT22;23904;52.322;10.232;2023-08-24T13:39:25;30.90;66.10
38090;DHT22;23904;52.322;10.232;2023-08-24T13:41:51;30.90;66.40
38090;DHT22;23904;52.322;10.232;2023-08-24T13:44:16;31.10;65.40
38090;DHT22;23904;52.322;10.232;2023-08-24T13:46:42;31.00;65.80
38090;DHT22;23904;52.322;10.232;2023-08-24T13:49:07;31.10;66.70
38090;DHT22;23904;52.322;10.232;2023-08-24T13:51:34;31.20;65.90
38090;DHT22;23904;52.322;10.232;2023-08-24T13:53:59;31.10;66.70
38090;DHT22;23904;52.322;10.232;2023-08-24T13:56:25;31.10;65.60
38090;DHT22;23904;52.322;10.232;2023-08-24T13:58:50;30.90;66.70
38090;DHT22;23904;52.322;10.232;2023-08-24T14:01:16;30.90;68.00
38090;DHT22;23904;52.322;10.232;2023-08-24T14:03:41;31.00;68.90
38090;DHT22;23904;52.322;10.232;2023-08-24T14:06:09;30.90;68.80
38090;DHT22;23904;52.322;10.232;2023-08-24T14:08:36;30.90;69.20
38090;DHT22;23904;52.322;10.232;2023-08-24T14:11:01;30.90;67.80
38090;DHT22;23904;52.322;10.232;2023-08-24T14:13:28;30.80;66.90
38090;DHT22;23904;52.322;10.232;2023-08-24T14:15:55;30.50;67.00
38090;DHT22;23904;52.322;10.232;2023-08-24T14:18:21;30.40;67.70
38090;DHT22;23904;52.322;10.232;2023-08-24T14:20:47;30.40;67.70
38090;DHT22;23904;52.322;10.232;2023-08-24T14:23:13;30.20;66.70
38090;DHT22;23904;52.322;10.232;2023-08-24T14:25:38;30.20;66.90
38090;DHT22;23904;52.322;10.232;2023-08-24T14:28:04;30.10;68.30
38090;DHT22;23904;52.322;10.232;2023-08-24T14:30:30;30.00;68.50
38090;DHT22;23904;52.322;10.232;2023-08-24T14:32:55;30.10;67.60
38090;DHT22;23904;52.322;10.232;2023-08-24T14:35:21;29.90;66.30
38090;DHT22;23904;52.322;10.232;2023-08-24T14:37:46;29.90;67.70
38090;DHT22;23904;52.322;10.232;2023-08-24T14:40:12;30.00;68.70
38090;DHT22;23904;52.322;10.232;2023-08-24T14:42:37;30.10;67.50
38090;DHT22;23904;52.322;10.232;2023-08-24T14:45:03;30.20;67.70
38090;DHT22;23904;52.322;10.232;2023-08-24T14:47:29;30.20;67.00
38090;DHT22;23904;52.322;10.232;2023-08-24T14:49:55;30.10;68.30
38090;DHT22;23904;52.322;10.232;2023-08-24T14:52:20;30.10;68.20
38090;DHT22;23904;52.322;10.232;2023-08-24T14:54:46;30.00;68.30
38090;DHT22;23904;52.322;10.232;2023-08-24T14:57:11;29.90;68.80
38090;DHT22;23904;52.322;10.232;2023-08-24T14:59:37;29.80;69.70
38090;DHT22;23904;52.322;10.232;2023-08-24T15:02:03;29.70;69.80
38090;DHT22;23904;52.322;10.232;2023-08-24T15:04:28;29.70;71.30
38090;DHT22;23904;52.322;10.232;2023-08-24T15:06:54;29.60;71.50
38090;DHT22;23904;52.322;10.232;2023-08-24T15:09:20;29.60;70.70
38090;DHT22;23904;52.322;10.232;2023-08-24T15:11:45;29.50;70.90
38090;DHT22;23904;52.322;10.232;2023-08-24T15:14:11;29.50;71.90
38090;DHT22;23904;52.322;10.232;2023-08-24T15:16:36;29.30;71.90
38090;DHT22;23904;52.322;10.232;2023-08-24T15:19:02;29.30;72.80
38090;DHT22;23904;52.322;10.232;2023-08-24T15:21:28;29.20;73.80
38090;DHT22;23904;52.322;10.232;2023-08-24T15:23:54;29.20;74.00
38090;DHT22;23904;52.322;10.232;2023-08-24T15:26:20;29.10;74.30
38090;DHT22;23904;52.322;10.232;2023-08-24T15:31:35;28.90;75.20
38090;DHT22;23904;52.322;10.232;2023-08-24T15:34:01;29.00;75.30